Ana Sayfa
METAR-TAF:

METAR-TAF

Havaalanları :

Sullivan County International Airport

Monticello, New York, Amerika Birleşik Devletleri

Enlem: 41-42N, Boylam: 074-48W, yükseklik: 428 m

Güncel hava durumu gözlemi

Rapor saat 19:56 UTC de 59 dakika önce yapıldı.
Rüzgar doğudan 9 kt
Sıcaklık 1°C
Nem 21%
Basınç 1029 hPa
Görüş mesafesi: 16.1 km
Açık gökyüzü

METAR: KMSV 161956Z AUTO 10009KT 10SM CLR 01/M19 A3039 RMK AO2 SLP307 T00061194 FZRANO

Saat: 15:55 (20:55 UTC)


TAF: eksik

4.000'den fazla havaalanı için hava durumu gözlemleri ve tahminleri (METAR ve TAF raporları).

Kullanılabilir istasyonlar harita üzerinde sarı ve kırmızı noktalarla gösterilir.

İstasyonun adını görmek için fareyi noktanın üzerinde gezdirin.

Sonrasında hava gözlem ve tahminlerini görmek için tıklayın.

Haritayı değiştirmek için: yaklaştırmak için siyah artı işaretli yeşil düğmeye ve uzaklaştırmak için de eksi işaretli düğmeye hızla tıklayın; bitişik haritalar için yeşil okları kullanın.


METAR-TAF: